Aeroporto :
LOGIN :

Iscrizione | Disclaimer

   EN    FR    IT 

 










Sommario :    VFR   VFR Marginale   IFR   IFR Intensivo   IFR Molto Intensivo
Visibilità : 
Base nubi : 
>= 8 km
>= 3000ft
5 / 8 km
1000 / 3000 ft
1500m / 5 km
500 / 1000 ft
800 / 1500m
200 / 500 ft
< 800m
< 200 ft
Simboli :   Temporali  Nebbia  Neve Forte  Precipitazioni Forti  Vento > 20 kt
SIGMETs :   Varie  Temporali  Ghiacco  Turbolenza  Onda orograficha  Ceneri Vulcaniche






- Altitudine del aeroporto : 131 ft
- Codice IATA : TLL


EETN - Talinn

ULTIMO METAR :
  • 050950Z 30011KT 270V340 9999 FEW030 05/M09 Q1030 NOSIG

METARs OBSOLETI :
  • 050920Z 31010KT CAVOK 04/M08 Q1029 NOSIG
  • 050850Z 32010KT 290V360 9999 FEW030 04/M09 Q1029 NOSIG
  • 050820Z 31010KT 270V330 9999 FEW030 04/M08 Q1029 NOSIG
  • 050750Z 30012KT 9999 FEW030 04/M08 Q1029 NOSIG
  • 050720Z 30010KT 270V330 9999 FEW030 04/M05 Q1028 NOSIG

TAF TAF EETN
Valido dal 05 a 06 ore il 06 a 06 ore UTC


050530Z 0506/0606 28014KT 9999 SCT030
BECMG 0516/0518 22006KT
TEMPO 0521/0523 4000 SHRA SCT010 SCT020CB BKN025
TEMPO 0523/0606 1500 DZ BR BKN003



MetMap, La meteo Aeronautica in un colpo d'occhio ! - Copyright ORBIFLY Dicembre 2007 - Disclaimer

ORBIFLY MET'MAP TEAM :

Programmazione e sviluppo : Alexandra Zaïnal
Concezione : Baudouin d'Aumeries
Aiuto per la programmazione : Marc-Olivier Méhu
Supporto tecnico e logistico : Manuel Goepfert
Aiuto per la traduzione : Arnaldo La Scala

Contatto : metmap@orbifly.com




FONTI E CREDITI :

   NOAA